Time;durP1;ratioP1;P1;durP2;ratioP2;P2;SDS_P1;SDS_P2;PMS_P1;PMS_P2;Temp;Humidity;BMP_temperature;BMP_pressure;BME280_temperature;BME280_humidity;BME280_pressure;Samples;Min_cycle;Max_cycle;Signal;HPM_P1;HPM_P2
2021/12/22 00:00:47;;;;;;;16.38;10.13;;;;;;;-0.88;73.06;100833.97;1087409;54;20030;-77
2021/12/22 00:01:51;;;;;;;14.70;9.60;;;;;;;-0.83;73.02;100834.66;1087395;54;20039;-77
2021/12/22 00:02:53;;;;;;;12.30;8.50;;;;;;;-0.80;72.77;100825.81;1087347;54;20053;-76
2021/12/22 00:03:58;;;;;;;14.93;8.63;;;;;;;-0.81;72.77;100834.63;1087411;54;20031;-75
2021/12/22 00:05:00;;;;;;;14.82;9.25;;;;;;;-0.81;72.92;100835.47;1087355;54;20038;-76
2021/12/22 00:06:04;;;;;;;14.18;9.43;;;;;;;-0.80;72.92;100844.19;1087016;54;21204;-77
2021/12/22 00:07:05;;;;;;;13.90;10.02;;;;;;;-0.81;72.74;100839.88;1090406;39;20965;-76
2021/12/22 00:08:10;;;;;;;15.55;9.70;;;;;;;-0.82;72.93;100831.13;1087299;54;20065;-77
2021/12/22 00:09:14;;;;;;;13.18;8.75;;;;;;;-0.80;72.93;100836.31;1087402;54;20035;-77
2021/12/22 00:10:16;;;;;;;12.38;9.13;;;;;;;-0.82;72.77;100828.50;1087416;54;20074;-77
2021/12/22 00:11:21;;;;;;;14.27;9.52;;;;;;;-0.80;72.69;100837.19;1087449;54;20053;-77
2021/12/22 00:12:22;;;;;;;13.98;9.70;;;;;;;-0.79;72.79;100825.78;1087467;54;20037;-77
2021/12/22 00:13:26;;;;;;;13.68;9.55;;;;;;;-0.82;72.51;100823.25;1087384;54;20034;-76
2021/12/22 00:14:28;;;;;;;14.43;9.15;;;;;;;-0.80;72.73;100820.56;1087402;54;20058;-76
2021/12/22 00:15:35;;;;;;;14.25;8.75;;;;;;;-0.77;72.52;100822.25;1087393;54;20042;-76
2021/12/22 00:16:37;;;;;;;12.23;8.40;;;;;;;-0.78;72.57;100821.38;1087390;54;20041;-78
2021/12/22 00:17:41;;;;;;;13.70;9.70;;;;;;;-0.82;72.56;100827.66;1087562;54;20034;-77
2021/12/22 00:18:44;;;;;;;14.57;8.63;;;;;;;-0.79;72.62;100819.66;1087402;54;20149;-76
2021/12/22 00:19:48;;;;;;;13.65;8.63;;;;;;;-0.75;72.67;100826.53;1087670;54;20085;-76
2021/12/22 00:20:49;;;;;;;12.23;7.63;;;;;;;-0.74;72.58;100827.38;1088012;54;20022;-77
2021/12/22 00:21:54;;;;;;;12.13;7.53;;;;;;;-0.73;72.75;100821.22;1088540;46;20035;-77
2021/12/22 00:22:55;;;;;;;13.82;8.75;;;;;;;-0.77;72.88;100828.34;1094505;39;20982;-76
2021/12/22 00:23:59;;;;;;;12.77;8.70;;;;;;;-0.76;72.63;100823.97;1087581;54;20042;-78
2021/12/22 00:25:01;;;;;;;15.68;9.38;;;;;;;-0.73;72.81;100816.81;1087436;54;20034;-76
2021/12/22 00:26:06;;;;;;;13.63;8.70;;;;;;;-0.66;72.47;100828.81;1087405;54;20034;-76
2021/12/22 00:27:08;;;;;;;12.95;7.82;;;;;;;-0.63;72.33;100827.84;1087304;54;20035;-76
2021/12/22 00:28:12;;;;;;;12.93;8.23;;;;;;;-0.64;72.42;100828.75;1087691;46;20049;-76
2021/12/22 00:29:16;;;;;;;11.95;8.43;;;;;;;-0.63;72.63;100822.59;1087306;54;20054;-76
2021/12/22 00:30:20;;;;;;;14.38;9.40;;;;;;;-0.61;72.33;100825.19;1087429;54;20061;-76
2021/12/22 00:31:26;;;;;;;13.88;8.57;;;;;;;-0.59;72.42;100828.59;1087490;54;20717;-76
2021/12/22 00:32:32;;;;;;;13.43;8.70;;;;;;;-0.60;72.30;100825.13;1087640;54;20035;-75
2021/12/22 00:33:34;;;;;;;12.48;8.63;;;;;;;-0.67;72.13;100821.00;1087590;54;20437;-76
2021/12/22 00:34:46;;;;;;;12.80;9.07;;;;;;;-0.70;72.32;100823.72;1087505;54;20030;-76
2021/12/22 00:35:50;;;;;;;14.88;9.15;;;;;;;-0.66;72.33;100818.31;1087399;54;20042;-76
2021/12/22 00:36:52;;;;;;;12.80;8.70;;;;;;;-0.65;72.13;100819.16;1087386;54;20065;-76
2021/12/22 00:37:56;;;;;;;12.63;8.30;;;;;;;-0.67;72.33;100823.63;1087310;54;20888;-76
2021/12/22 00:38:58;;;;;;;12.80;8.52;;;;;;;-0.65;72.31;100821.78;1087361;54;20034;-76
2021/12/22 00:40:02;;;;;;;10.88;7.78;;;;;;;-0.64;72.31;100823.50;1087377;54;20981;-76
2021/12/22 00:41:05;;;;;;;11.43;7.78;;;;;;;-0.61;72.17;100822.56;1087345;54;20034;-75
2021/12/22 00:42:10;;;;;;;12.10;7.43;;;;;;;-0.59;72.21;100829.47;1087772;39;20712;-75
2021/12/22 00:43:12;;;;;;;13.05;8.77;;;;;;;-0.59;71.97;100824.22;1087292;54;20035;-76
2021/12/22 00:44:16;;;;;;;11.68;8.00;;;;;;;-0.61;72.14;100822.56;1087348;54;20030;-75
2021/12/22 00:45:23;;;;;;;12.90;8.00;;;;;;;-0.68;71.97;100822.75;1087390;54;20057;-75
2021/12/22 00:46:28;;;;;;;14.93;8.50;;;;;;;-0.68;72.03;100821.91;1087823;39;20713;-75
2021/12/22 00:47:33;;;;;;;12.57;8.52;;;;;;;-0.69;72.03;100825.44;1087412;54;20036;-76
2021/12/22 00:48:34;;;;;;;15.93;9.55;;;;;;;-0.77;72.09;100828.34;1087295;47;20770;-77
2021/12/22 00:49:39;;;;;;;13.02;8.00;;;;;;;-0.76;72.17;100823.97;1087342;54;20053;-76
2021/12/22 00:50:41;;;;;;;11.88;8.35;;;;;;;-0.88;72.47;100819.97;1088685;46;20037;-75
2021/12/22 00:51:45;;;;;;;13.48;8.90;;;;;;;-0.86;72.57;100826.03;1087326;54;20031;-76
2021/12/22 00:52:49;;;;;;;14.38;8.88;;;;;;;-0.84;72.73;100826.84;1088010;39;20657;-76
2021/12/22 00:53:51;;;;;;;12.23;8.25;;;;;;;-0.82;72.67;100823.25;1087349;54;20069;-75
2021/12/22 00:54:56;;;;;;;11.95;8.05;;;;;;;-0.74;72.55;100827.38;1087409;54;20027;-75
2021/12/22 00:55:58;;;;;;;11.82;7.72;;;;;;;-0.70;72.43;100823.72;1087379;54;20034;-75
2021/12/22 00:57:05;;;;;;;13.57;8.02;;;;;;;-0.72;72.20;100823.81;1087379;54;20030;-76
2021/12/22 00:58:07;;;;;;;12.85;7.90;;;;;;;-0.70;72.30;100829.84;1087325;54;20034;-76
2021/12/22 00:59:12;;;;;;;11.63;8.30;;;;;;;-0.67;72.28;100828.88;1087335;54;20110;-75
2021/12/22 01:00:15;;;;;;;10.55;7.43;;;;;;;-0.69;72.27;100833.34;1087406;54;20113;-76
2021/12/22 01:01:19;;;;;;;12.23;7.68;;;;;;;-0.73;72.21;100827.34;1087890;46;20037;-75
2021/12/22 01:02:24;;;;;;;12.82;9.13;;;;;;;-0.85;72.60;100828.59;1087252;54;20038;-77
2021/12/22 01:03:29;;;;;;;14.90;9.40;;;;;;;-0.95;72.35;100822.81;1087307;54;20102;-77
2021/12/22 01:04:31;;;;;;;16.95;11.13;;;;;;;-1.19;72.87;100826.25;1087344;54;21109;-76
2021/12/22 01:05:36;;;;;;;16.08;11.07;;;;;;;-1.26;73.19;100829.06;1087363;54;20057;-76
2021/12/22 01:06:38;;;;;;;19.65;11.27;;;;;;;-1.26;73.29;100834.31;1086934;54;21265;-76
2021/12/22 01:07:42;;;;;;;16.50;10.95;;;;;;;-1.24;73.31;100826.41;1087585;39;21230;-77
2021/12/22 01:08:44;;;;;;;17.73;10.90;;;;;;;-1.39;73.45;100840.00;1087312;54;20038;-76
2021/12/22 01:09:48;;;;;;;18.73;12.52;;;;;;;-1.59;73.84;100833.63;1087429;54;20034;-77
2021/12/22 01:10:50;;;;;;;21.65;13.73;;;;;;;-1.80;74.37;100835.16;1087345;54;20030;-77
2021/12/22 01:11:55;;;;;;;21.50;14.48;;;;;;;-1.84;74.63;100834.38;1087323;54;20030;-76
2021/12/22 01:12:59;;;;;;;19.67;12.68;;;;;;;-1.89;74.59;100834.53;1087318;54;20030;-76
2021/12/22 01:14:04;;;;;;;20.23;13.07;;;;;;;-2.00;75.00;100838.38;1087379;54;20030;-77
2021/12/22 01:15:11;;;;;;;20.70;14.15;;;;;;;-2.00;74.98;100827.88;1087375;54;20068;-76
2021/12/22 01:16:15;;;;;;;20.70;13.70;;;;;;;-2.02;75.38;100830.53;1087278;54;20041;-77
2021/12/22 01:17:17;;;;;;;22.13;14.23;;;;;;;-2.09;75.48;100827.25;1087380;54;20038;-76
2021/12/22 01:18:29;;;;;;;24.90;13.35;;;;;;;-2.16;75.71;100822.22;1087264;54;20030;-75
2021/12/22 01:19:41;;;;;;;21.60;14.75;;;;;;;-2.22;76.17;100829.34;1087465;54;20042;-75
2021/12/22 01:21:00;;;;;;;22.95;14.48;;;;;;;-2.26;76.44;100829.47;1088024;54;20408;-76
2021/12/22 01:22:18;;;;;;;21.13;14.45;;;;;;;-2.31;76.56;100828.75;1088105;54;20022;-76
2021/12/22 01:23:20;;;;;;;20.58;13.98;;;;;;;-2.28;76.39;100839.16;1087974;54;20030;-76
2021/12/22 01:24:31;;;;;;;22.75;14.55;;;;;;;-2.33;76.37;100825.31;1087990;54;20041;-76
2021/12/22 01:25:42;;;;;;;22.52;14.63;;;;;;;-2.32;76.55;100829.66;1087378;54;20102;-76
2021/12/22 01:26:45;;;;;;;22.50;14.27;;;;;;;-2.35;76.57;100831.47;1088263;47;20034;-76
2021/12/22 01:27:52;;;;;;;22.73;14.30;;;;;;;-2.31;76.58;100837.47;1087340;54;20038;-77
2021/12/22 01:28:54;;;;;;;21.63;14.00;;;;;;;-2.33;76.36;100828.81;1087317;54;20063;-77
2021/12/22 01:29:58;;;;;;;24.13;14.80;;;;;;;-2.37;76.64;100830.66;1087419;46;20034;-75
2021/12/22 01:31:03;;;;;;;24.83;13.90;;;;;;;-2.39;76.59;100835.09;1087367;54;20038;-77
2021/12/22 01:32:11;;;;;;;22.67;15.10;;;;;;;-2.40;76.84;100827.25;1087509;47;20031;-77
2021/12/22 01:33:16;;;;;;;21.27;15.38;;;;;;;-2.42;76.86;100829.94;1087951;54;20031;-76
2021/12/22 01:34:20;;;;;;;21.92;14.57;;;;;;;-2.42;76.85;100826.47;1087918;54;20045;-77
2021/12/22 01:35:37;;;;;;;20.98;14.32;;;;;;;-2.42;76.75;100827.31;1088008;54;20037;-76
2021/12/22 01:36:39;;;;;;;22.05;15.10;;;;;;;-2.50;76.86;100829.28;1088030;54;20053;-77
2021/12/22 01:37:45;;;;;;;22.83;14.25;;;;;;;-2.48;76.99;100832.72;1088107;54;20031;-77
2021/12/22 01:38:48;;;;;;;21.10;13.65;;;;;;;-2.44;76.98;100834.34;1088617;46;20045;-77
2021/12/22 01:39:52;;;;;;;23.80;15.65;;;;;;;-2.48;76.77;100834.47;1087996;54;20045;-77
2021/12/22 01:41:01;;;;;;;19.52;13.43;;;;;;;-2.46;76.99;100838.78;1087570;54;20034;-77
2021/12/22 01:42:06;;;;;;;22.05;14.52;;;;;;;-2.46;76.88;100832.66;1088437;46;20037;-77
2021/12/22 01:43:17;;;;;;;20.75;14.43;;;;;;;-2.52;77.13;100834.56;1088068;54;20099;-76
2021/12/22 01:44:35;;;;;;;25.38;13.95;;;;;;;-2.51;76.96;100840.66;1089484;39;20665;-77
2021/12/22 01:45:56;;;;;;;23.50;15.15;;;;;;;-2.61;77.16;100842.69;1087282;54;21134;-77
2021/12/22 01:49:50;;;;;;;20.50;13.35;;;;;;;-2.52;77.04;100849.41;1087358;54;20035;-77
2021/12/22 01:50:56;;;;;;;18.95;12.48;;;;;;;-2.48;76.87;100844.94;1087329;54;20058;-77
2021/12/22 01:52:04;;;;;;;19.50;14.20;;;;;;;-2.51;76.65;100843.28;1087261;54;20061;-77
2021/12/22 01:53:12;;;;;;;16.80;12.13;;;;;;;-2.50;76.70;100845.00;1087249;54;20784;-77
2021/12/22 01:54:28;;;;;;;18.88;11.93;;;;;;;-2.61;76.88;100852.28;1087384;54;20034;-77
2021/12/22 01:55:38;;;;;;;21.50;13.63;;;;;;;-2.64;77.10;100847.13;1087267;54;20031;-77
2021/12/22 01:56:42;;;;;;;18.63;13.18;;;;;;;-2.68;77.25;100859.41;1087227;54;20030;-77
2021/12/22 01:57:49;;;;;;;23.17;13.88;;;;;;;-2.72;77.47;100856.03;1087232;54;20030;-77
2021/12/22 01:59:09;;;;;;;20.88;14.00;;;;;;;-2.75;77.65;100860.50;1087552;47;20022;-77
2021/12/22 02:00:15;;;;;;;22.48;13.65;;;;;;;-2.73;77.59;100856.91;1087764;47;20034;-76
2021/12/22 02:01:17;;;;;;;18.20;12.85;;;;;;;-2.66;77.28;100865.47;1087217;54;20031;-77
2021/12/22 02:02:22;;;;;;;22.65;14.40;;;;;;;-2.64;77.27;100868.94;1087036;54;20030;-77
2021/12/22 02:03:23;;;;;;;17.65;13.07;;;;;;;-2.63;77.37;100869.78;1087208;54;20102;-77
2021/12/22 02:04:28;;;;;;;22.67;14.45;;;;;;;-2.65;77.43;100871.59;1087198;54;20061;-76
2021/12/22 02:05:32;;;;;;;20.95;14.15;;;;;;;-2.65;77.45;100867.19;1087265;54;20042;-76
2021/12/22 02:06:36;;;;;;;22.58;13.25;;;;;;;-2.63;77.50;100869.78;1088653;39;20599;-76
2021/12/22 02:07:41;;;;;;;22.13;13.50;;;;;;;-2.68;77.43;100870.78;1088645;39;20985;-76
2021/12/22 02:08:44;;;;;;;20.08;13.52;;;;;;;-2.71;77.73;100877.84;1087177;54;20039;-77
2021/12/22 02:10:05;;;;;;;19.58;13.18;;;;;;;-2.65;77.31;100877.69;1088686;39;20664;-77
2021/12/22 02:11:08;;;;;;;21.05;14.13;;;;;;;-2.65;77.22;100880.28;1087189;54;20805;-76
2021/12/22 02:12:14;;;;;;;20.13;12.95;;;;;;;-2.70;77.47;100885.66;1087284;54;20034;-78
2021/12/22 02:13:21;;;;;;;21.52;14.27;;;;;;;-2.69;77.62;100882.13;1087167;54;20397;-78
2021/12/22 02:14:25;;;;;;;20.88;14.25;;;;;;;-2.66;77.46;100883.81;1087299;54;20038;-77
2021/12/22 02:15:32;;;;;;;22.13;14.05;;;;;;;-2.68;77.32;100883.84;1087238;54;20030;-77
2021/12/22 02:16:39;;;;;;;21.92;14.10;;;;;;;-2.73;77.45;100890.94;1089129;39;20988;-75
2021/12/22 02:17:41;;;;;;;18.30;12.38;;;;;;;-2.65;77.21;100879.44;1087210;54;20026;-77
2021/12/22 02:18:48;;;;;;;19.48;13.50;;;;;;;-2.62;77.06;100879.34;1087133;54;20106;-77
2021/12/22 02:19:55;;;;;;;19.40;12.50;;;;;;;-2.46;76.89;100880.69;1087279;54;20035;-77
2021/12/22 02:20:57;;;;;;;21.00;12.98;;;;;;;-2.41;76.53;100880.56;1087244;54;20035;-77
2021/12/22 02:22:13;;;;;;;17.58;11.98;;;;;;;-2.38;76.64;100878.72;1087173;54;20065;-77
2021/12/22 02:23:15;;;;;;;20.80;13.07;;;;;;;-2.57;76.66;100874.88;1087088;54;20030;-77
2021/12/22 02:24:19;;;;;;;19.63;13.10;;;;;;;-2.61;76.88;100881.06;1089640;39;20666;-77
2021/12/22 02:25:30;;;;;;;21.45;14.20;;;;;;;-2.55;77.01;100879.16;1087231;54;20049;-77
2021/12/22 02:26:38;;;;;;;20.67;12.93;;;;;;;-2.58;76.80;100879.22;1087241;54;20773;-76
2021/12/22 02:27:46;;;;;;;23.00;13.27;;;;;;;-2.69;77.04;100879.53;1087208;54;20035;-76
2021/12/22 02:28:58;;;;;;;20.92;12.90;;;;;;;-2.64;77.23;100871.53;1087173;54;20030;-77
2021/12/22 02:30:02;;;;;;;18.38;12.57;;;;;;;-2.52;76.67;100875.59;1087169;54;20035;-76
2021/12/22 02:31:07;;;;;;;22.58;13.52;;;;;;;-2.52;76.61;100873.84;1087229;54;20030;-77
2021/12/22 02:32:14;;;;;;;19.25;12.55;;;;;;;-2.43;76.37;100880.59;1087204;54;20030;-77
2021/12/22 02:33:33;;;;;;;19.60;12.32;;;;;;;-2.56;76.75;100876.59;1087267;54;20030;-77
2021/12/22 02:34:41;;;;;;;21.70;12.75;;;;;;;-2.60;76.83;100869.69;1087215;54;20034;-76
2021/12/22 02:35:55;;;;;;;21.80;13.05;;;;;;;-2.55;76.70;100870.47;1087131;54;20046;-77
2021/12/22 02:37:09;;;;;;;22.52;14.35;;;;;;;-2.61;76.70;100865.34;1087215;54;20061;-78
2021/12/22 02:38:17;;;;;;;19.92;12.82;;;;;;;-2.67;77.00;100875.09;1087098;54;20034;-77
2021/12/22 02:39:21;;;;;;;22.85;14.02;;;;;;;-2.62;76.98;100874.09;1087214;54;20064;-76
2021/12/22 02:40:26;;;;;;;20.33;14.02;;;;;;;-2.69;77.03;100870.78;1087191;54;21176;-77
2021/12/22 02:41:32;;;;;;;24.27;14.10;;;;;;;-2.76;77.40;100874.47;1087684;47;20057;-76
2021/12/22 02:42:35;;;;;;;21.67;14.57;;;;;;;-2.77;77.34;100867.50;1087123;54;20031;-76
2021/12/22 02:43:45;;;;;;;20.02;14.60;;;;;;;-2.86;77.29;100866.00;1087113;54;20057;-77
2021/12/22 02:44:46;;;;;;;21.00;14.20;;;;;;;-2.83;77.51;100869.41;1087134;54;20034;-77
2021/12/22 02:45:51;;;;;;;21.42;13.55;;;;;;;-2.74;77.34;100859.59;1087217;54;20031;-77
2021/12/22 02:46:53;;;;;;;22.38;14.13;;;;;;;-2.79;77.45;100870.19;1087081;54;20035;-76
2021/12/22 02:47:57;;;;;;;23.17;15.15;;;;;;;-2.83;77.59;100866.78;1087234;47;20046;-76
2021/12/22 02:49:03;;;;;;;23.42;13.43;;;;;;;-2.78;77.42;100863.16;1087101;54;20041;-78
2021/12/22 02:50:07;;;;;;;21.95;14.30;;;;;;;-2.76;77.13;100857.03;1087134;54;20027;-76
2021/12/22 02:51:15;;;;;;;23.80;14.70;;;;;;;-2.86;77.55;100869.47;1087225;54;21122;-76
2021/12/22 02:52:17;;;;;;;20.58;13.75;;;;;;;-2.85;77.48;100860.72;1087554;54;20034;-79
2021/12/22 02:53:27;;;;;;;19.30;13.48;;;;;;;-2.81;77.32;100861.50;1087882;54;20034;-77
2021/12/22 02:54:39;;;;;;;19.95;13.45;;;;;;;-2.77;77.11;100860.53;1087969;54;20030;-78
2021/12/22 02:55:46;;;;;;;18.42;13.13;;;;;;;-2.88;77.30;100870.41;1088466;46;20062;-77
2021/12/22 02:57:06;;;;;;;19.55;13.32;;;;;;;-2.89;77.56;100868.69;1087705;54;20064;-77
2021/12/22 02:58:10;;;;;;;22.73;14.18;;;;;;;-2.92;77.41;100864.41;1088617;46;20058;-78
2021/12/22 02:59:35;;;;;;;20.08;13.60;;;;;;;-2.86;77.32;100871.25;1088032;54;20038;-78
2021/12/22 03:00:48;;;;;;;23.40;12.85;;;;;;;-2.74;77.20;100867.44;1091867;39;20893;-78
2021/12/22 03:03:35;;;;;;;20.52;12.13;;;;;;;-2.62;76.84;100879.34;1087325;54;20034;-77
2021/12/22 03:04:45;;;;;;;16.02;11.20;;;;;;;-2.52;76.28;100870.34;1087477;54;20034;-76
2021/12/22 03:05:49;;;;;;;15.40;10.93;;;;;;;-2.52;76.00;100879.09;1087625;54;20078;-78
2021/12/22 03:06:57;;;;;;;18.83;12.75;;;;;;;-2.51;76.07;100869.47;1087617;54;20019;-78
2021/12/22 03:08:01;;;;;;;19.23;12.48;;;;;;;-2.57;76.06;100870.47;1087417;54;20069;-78
2021/12/22 03:09:14;;;;;;;19.02;12.13;;;;;;;-2.51;76.10;100874.69;1087576;54;20050;-77
2021/12/22 03:10:20;;;;;;;15.10;10.65;;;;;;;-2.51;75.94;100869.47;1087563;54;20037;-78
2021/12/22 03:11:27;;;;;;;19.23;11.43;;;;;;;-2.52;76.11;100879.09;1087760;54;20040;-78
2021/12/22 03:12:36;;;;;;;16.65;11.52;;;;;;;-2.51;75.86;100879.94;1087534;54;20045;-76
2021/12/22 03:13:37;;;;;;;21.63;11.32;;;;;;;-2.48;75.94;100874.63;1087503;54;20038;-76
2021/12/22 03:14:42;;;;;;;16.10;11.20;;;;;;;-2.50;75.73;100879.03;1087707;54;20090;-76
2021/12/22 03:15:49;;;;;;;18.08;12.10;;;;;;;-2.51;76.06;100877.31;1087712;54;20035;-76
2021/12/22 03:16:52;;;;;;;18.23;12.73;;;;;;;-2.47;75.87;100880.72;1087869;54;20035;-76
2021/12/22 03:17:56;;;;;;;17.10;11.10;;;;;;;-2.47;76.05;100880.72;1087657;54;20037;-77
2021/12/22 03:18:57;;;;;;;16.55;10.95;;;;;;;-2.49;75.95;100888.59;1087430;54;20875;-77
2021/12/22 03:20:17;;;;;;;18.98;12.32;;;;;;;-2.47;75.94;100886.81;1087776;54;20041;-75
2021/12/22 03:21:20;;;;;;;16.63;11.10;;;;;;;-2.47;75.71;100889.44;1088086;54;20059;-76
2021/12/22 03:22:27;;;;;;;16.63;10.93;;;;;;;-2.46;75.79;100883.31;1087996;54;20092;-76
2021/12/22 03:23:29;;;;;;;16.45;10.80;;;;;;;-2.43;75.67;100883.19;1087864;54;20062;-80
2021/12/22 03:24:35;;;;;;;16.95;10.75;;;;;;;-2.42;75.62;100887.53;1087508;54;20034;-76
2021/12/22 03:25:39;;;;;;;16.38;11.23;;;;;;;-2.44;75.83;100886.72;1087444;54;20042;-75
2021/12/22 03:26:42;;;;;;;17.95;11.75;;;;;;;-2.47;75.70;100886.81;1087545;54;20034;-76
2021/12/22 03:27:48;;;;;;;18.42;12.43;;;;;;;-2.47;75.69;100884.19;1088349;39;20745;-76
2021/12/22 03:28:50;;;;;;;19.05;12.40;;;;;;;-2.51;75.77;100880.81;1087429;54;20035;-75
2021/12/22 03:29:55;;;;;;;20.15;12.20;;;;;;;-2.53;75.65;100882.59;1087509;54;20031;-76
2021/12/22 03:30:59;;;;;;;21.00;12.13;;;;;;;-2.51;75.69;100875.56;1087294;54;20034;-76
2021/12/22 03:32:03;;;;;;;17.73;11.32;;;;;;;-2.47;75.65;100883.31;1087429;54;20041;-77
2021/12/22 03:33:05;;;;;;;18.00;10.82;;;;;;;-2.47;75.58;100889.44;1087548;54;20076;-76
2021/12/22 03:34:10;;;;;;;24.27;13.38;;;;;;;-2.48;75.70;100882.47;1087365;54;20030;-77
2021/12/22 03:35:17;;;;;;;17.70;12.45;;;;;;;-2.57;75.82;100887.97;1087547;54;20034;-82
2021/12/22 03:36:21;;;;;;;23.60;12.60;;;;;;;-2.57;76.11;100880.09;1087825;39;20800;-75
2021/12/22 03:37:25;;;;;;;19.50;13.20;;;;;;;-2.63;75.99;100872.38;1087517;54;20035;-78
2021/12/22 03:38:30;;;;;;;20.08;12.90;;;;;;;-2.63;76.13;100870.66;1087504;54;20034;-76
2021/12/22 03:39:32;;;;;;;22.27;12.65;;;;;;;-2.61;76.02;100867.97;1087790;54;20053;-77
2021/12/22 03:40:36;;;;;;;16.33;10.52;;;;;;;-2.56;76.06;100871.34;1087874;54;20109;-77
2021/12/22 03:41:39;;;;;;;17.58;11.23;;;;;;;-2.56;75.78;100861.72;1087764;54;20754;-76
2021/12/22 03:42:43;;;;;;;18.77;10.95;;;;;;;-2.57;75.76;100859.16;1087826;54;20034;-76
2021/12/22 03:43:47;;;;;;;16.55;10.93;;;;;;;-2.56;75.66;100860.88;1087803;54;20046;-77
2021/12/22 03:44:49;;;;;;;18.70;11.90;;;;;;;-2.60;75.78;100859.22;1087886;54;20784;-78
2021/12/22 03:45:54;;;;;;;17.98;11.50;;;;;;;-2.59;75.85;100871.44;1087711;54;20819;-76
2021/12/22 03:46:58;;;;;;;19.75;11.73;;;;;;;-2.57;75.65;100869.63;1087708;54;20041;-76
2021/12/22 03:48:02;;;;;;;16.23;10.23;;;;;;;-2.52;75.80;100865.13;1087741;54;20821;-76
2021/12/22 03:49:06;;;;;;;16.17;10.45;;;;;;;-2.46;75.50;100872.81;1087633;54;20034;-76
2021/12/22 03:50:13;;;;;;;20.05;10.75;;;;;;;-2.47;75.22;100863.25;1087755;54;20035;-76
2021/12/22 03:51:14;;;;;;;17.45;10.70;;;;;;;-2.47;75.32;100863.25;1087791;54;20046;-77
2021/12/22 03:52:18;;;;;;;14.15;9.82;;;;;;;-2.44;75.09;100864.91;1087730;54;20037;-76
2021/12/22 03:53:25;;;;;;;15.88;9.63;;;;;;;-2.49;75.03;100870.28;1087768;54;20027;-77
2021/12/22 03:54:27;;;;;;;19.45;11.02;;;;;;;-2.47;75.03;100867.59;1087868;54;20034;-76
2021/12/22 03:55:32;;;;;;;16.42;10.43;;;;;;;-2.44;75.32;100865.75;1087883;54;20030;-75
2021/12/22 03:56:34;;;;;;;18.88;11.13;;;;;;;-2.52;75.08;100862.50;1087838;54;20035;-76
2021/12/22 03:57:38;;;;;;;16.25;11.15;;;;;;;-2.48;74.96;100863.28;1087857;54;20037;-76
2021/12/22 03:58:40;;;;;;;16.77;10.57;;;;;;;-2.46;75.22;100870.22;1087727;54;20034;-75
2021/12/22 03:59:44;;;;;;;18.40;10.57;;;;;;;-2.45;75.05;100858.81;1087888;54;20030;-76
2021/12/22 04:00:45;;;;;;;18.00;10.43;;;;;;;-2.41;75.08;100859.59;1088442;46;20041;-76
2021/12/22 04:01:50;;;;;;;15.60;9.77;;;;;;;-2.40;74.82;100854.31;1087845;54;20030;-77
2021/12/22 04:02:52;;;;;;;14.18;9.18;;;;;;;-2.38;74.90;100855.13;1087821;54;20038;-76
2021/12/22 04:04:00;;;;;;;16.58;9.65;;;;;;;-2.35;74.74;100860.28;1087444;54;20035;-75
2021/12/22 04:05:03;;;;;;;12.60;8.02;;;;;;;-2.31;74.72;100854.97;1087929;46;20042;-76
2021/12/22 04:06:09;;;;;;;13.35;8.45;;;;;;;-2.29;74.64;100848.78;1087883;54;20038;-75
2021/12/22 04:07:10;;;;;;;17.25;8.98;;;;;;;-2.28;74.68;100855.72;1090308;39;20715;-77
2021/12/22 04:08:18;;;;;;;13.98;9.68;;;;;;;-2.26;74.70;100853.06;1088307;46;20717;-77
2021/12/22 04:09:27;;;;;;;13.38;8.93;;;;;;;-2.25;74.66;100857.41;1087810;54;20911;-76
2021/12/22 04:10:31;;;;;;;14.75;8.75;;;;;;;-2.18;74.64;100868.56;1087843;54;21128;-77
2021/12/22 04:11:33;;;;;;;13.80;8.38;;;;;;;-2.20;74.34;100855.53;1087833;54;20037;-75
2021/12/22 04:12:37;;;;;;;15.70;9.30;;;;;;;-2.16;74.33;100864.16;1087884;54;20030;-76
2021/12/22 04:13:39;;;;;;;18.02;10.35;;;;;;;-2.16;74.26;100862.38;1087777;54;20039;-75
2021/12/22 04:14:43;;;;;;;14.63;8.95;;;;;;;-2.18;74.22;100858.97;1087779;54;20021;-76
2021/12/22 04:15:45;;;;;;;16.25;10.02;;;;;;;-2.22;74.35;100859.94;1087857;54;20034;-75
2021/12/22 04:16:49;;;;;;;18.65;10.38;;;;;;;-2.23;74.30;100863.47;1087910;54;20037;-76
2021/12/22 04:17:51;;;;;;;15.30;9.50;;;;;;;-2.23;74.42;100860.84;1087832;54;20018;-77
2021/12/22 04:18:56;;;;;;;15.73;9.90;;;;;;;-2.25;74.14;100860.03;1087835;54;20035;-77
2021/12/22 04:19:57;;;;;;;16.35;8.98;;;;;;;-2.20;74.17;100858.16;1087745;54;20690;-77
2021/12/22 04:21:01;;;;;;;16.20;9.95;;;;;;;-2.21;74.18;100869.53;1087836;54;20030;-77
2021/12/22 04:22:04;;;;;;;16.13;9.27;;;;;;;-2.21;74.25;100867.75;1088290;46;20034;-77
2021/12/22 04:23:11;;;;;;;17.92;10.30;;;;;;;-2.17;74.13;100867.66;1087836;54;20065;-77
2021/12/22 04:24:12;;;;;;;15.30;8.95;;;;;;;-2.18;74.11;100869.44;1087771;54;20065;-77
2021/12/22 04:25:22;;;;;;;16.27;10.25;;;;;;;-2.32;74.55;100867.22;1089704;39;20828;-77
2021/12/22 04:26:24;;;;;;;17.88;10.43;;;;;;;-2.41;74.73;100865.69;1087859;54;20042;-76
2021/12/22 04:27:28;;;;;;;23.52;10.65;;;;;;;-2.44;74.84;100864.91;1087839;54;20034;-77
2021/12/22 04:28:30;;;;;;;21.20;11.75;;;;;;;-2.53;75.06;100864.28;1087741;54;20034;-76
2021/12/22 04:29:34;;;;;;;18.98;12.90;;;;;;;-2.68;75.46;100862.91;1087841;54;20031;-78
2021/12/22 04:30:37;;;;;;;16.80;11.85;;;;;;;-2.65;75.54;100861.13;1087745;54;20830;-76
2021/12/22 04:31:42;;;;;;;20.13;11.38;;;;;;;-2.73;75.76;100864.78;1087837;54;20035;-77
2021/12/22 04:32:43;;;;;;;19.77;12.88;;;;;;;-2.87;76.10;100866.91;1087863;54;20031;-76
2021/12/22 04:33:48;;;;;;;22.10;13.25;;;;;;;-2.96;76.24;100870.59;1091453;39;20908;-76
2021/12/22 04:34:49;;;;;;;20.25;13.32;;;;;;;-3.09;76.25;100867.44;1087862;54;20030;-77
2021/12/22 04:35:55;;;;;;;20.92;12.98;;;;;;;-3.13;76.57;100871.03;1088741;39;20729;-76
2021/12/22 04:36:59;;;;;;;18.55;13.20;;;;;;;-3.15;76.78;100863.19;1092931;39;20319;-76
2021/12/22 04:38:01;;;;;;;20.75;13.40;;;;;;;-3.19;76.76;100858.09;1088226;39;20737;-77
2021/12/22 04:39:06;;;;;;;21.17;13.25;;;;;;;-3.25;76.87;100851.25;1087844;54;20061;-77
2021/12/22 04:40:10;;;;;;;19.73;13.55;;;;;;;-3.24;76.74;100857.34;1088602;46;20717;-78
2021/12/22 04:41:17;;;;;;;21.98;15.00;;;;;;;-3.29;76.95;100857.47;1087347;54;20071;-75
2021/12/22 04:42:19;;;;;;;23.67;14.68;;;;;;;-3.35;76.93;100849.72;1087372;54;20034;-76
2021/12/22 04:43:24;;;;;;;23.48;14.50;;;;;;;-3.36;77.03;100853.28;1087442;54;20042;-76
2021/12/22 04:44:26;;;;;;;21.40;14.20;;;;;;;-3.36;77.10;100842.81;1087737;54;20037;-76
2021/12/22 04:45:30;;;;;;;22.08;13.48;;;;;;;-3.26;76.97;100856.50;1087691;54;20038;-76
2021/12/22 04:46:34;;;;;;;21.02;13.32;;;;;;;-3.18;76.83;100855.44;1087891;54;20038;-76
2021/12/22 04:47:38;;;;;;;19.35;12.82;;;;;;;-3.22;76.53;100858.19;1087761;54;20034;-76
2021/12/22 04:48:42;;;;;;;20.88;12.85;;;;;;;-3.30;76.66;100851.34;1088570;39;20848;-76
2021/12/22 04:49:45;;;;;;;18.98;13.43;;;;;;;-3.19;76.69;100855.47;1087706;54;20038;-75
2021/12/22 04:50:49;;;;;;;18.10;12.65;;;;;;;-3.18;76.38;100858.06;1087834;54;20042;-75
2021/12/22 04:51:53;;;;;;;20.27;13.85;;;;;;;-3.34;76.74;100861.91;1089361;46;20026;-76
2021/12/22 04:53:03;;;;;;;20.90;12.73;;;;;;;-3.36;76.85;100859.34;1090865;46;20045;-75
2021/12/22 04:54:14;;;;;;;18.55;12.75;;;;;;;-3.35;76.79;100854.97;1087627;54;20031;-76
2021/12/22 04:55:18;;;;;;;20.50;12.50;;;;;;;-3.36;76.78;100854.13;1087503;54;20102;-76
2021/12/22 04:56:25;;;;;;;18.63;13.13;;;;;;;-3.37;76.55;100859.41;1087467;54;20038;-76
2021/12/22 04:57:27;;;;;;;17.67;12.30;;;;;;;-3.32;76.54;100854.91;1087611;54;20042;-76
2021/12/22 04:58:31;;;;;;;19.38;12.43;;;;;;;-3.36;76.71;100859.34;1087658;54;20035;-76
2021/12/22 04:59:32;;;;;;;16.38;11.45;;;;;;;-3.24;76.45;100857.34;1087669;54;20058;-75
2021/12/22 05:00:39;;;;;;;20.05;11.02;;;;;;;-3.19;76.41;100858.09;1087640;54;20037;-75
2021/12/22 05:01:40;;;;;;;19.52;11.43;;;;;;;-3.24;76.22;100862.56;1087630;54;20031;-76
2021/12/22 05:02:45;;;;;;;18.55;12.45;;;;;;;-3.25;76.55;100856.47;1087524;54;20042;-76